sensor_id;sensor_type;location;lat;lon;timestamp;pressure;altitude;pressure_sealevel;temperature
24639;BMP180;1641;51.306;12.384;2024-02-16T00:01:40;100104.00;;;12.40
24639;BMP180;1641;51.306;12.384;2024-02-16T00:04:05;100110.00;;;12.60
24639;BMP180;1641;51.306;12.384;2024-02-16T00:06:30;100110.00;;;12.40
24639;BMP180;1641;51.306;12.384;2024-02-16T00:08:56;100101.00;;;12.40
24639;BMP180;1641;51.306;12.384;2024-02-16T00:11:21;100106.00;;;12.60
24639;BMP180;1641;51.306;12.384;2024-02-16T00:13:48;100097.00;;;12.70
24639;BMP180;1641;51.306;12.384;2024-02-16T00:16:19;100100.00;;;12.50
24639;BMP180;1641;51.306;12.384;2024-02-16T00:18:44;100088.00;;;12.70
24639;BMP180;1641;51.306;12.384;2024-02-16T00:21:10;100089.00;;;12.70
24639;BMP180;1641;51.306;12.384;2024-02-16T00:23:35;100083.00;;;12.80
24639;BMP180;1641;51.306;12.384;2024-02-16T00:26:02;100084.00;;;12.80
24639;BMP180;1641;51.306;12.384;2024-02-16T00:28:27;100089.00;;;12.80
24639;BMP180;1641;51.306;12.384;2024-02-16T00:30:53;100095.00;;;12.60
24639;BMP180;1641;51.306;12.384;2024-02-16T00:33:18;100094.00;;;12.50
24639;BMP180;1641;51.306;12.384;2024-02-16T00:35:46;100056.00;;;12.70
24639;BMP180;1641;51.306;12.384;2024-02-16T00:38:14;100101.00;;;12.70
24639;BMP180;1641;51.306;12.384;2024-02-16T00:40:40;100095.00;;;12.80
24639;BMP180;1641;51.306;12.384;2024-02-16T00:43:09;100069.00;;;12.90
24639;BMP180;1641;51.306;12.384;2024-02-16T00:45:34;100095.00;;;12.80
24639;BMP180;1641;51.306;12.384;2024-02-16T00:47:59;100088.00;;;12.70
24639;BMP180;1641;51.306;12.384;2024-02-16T00:50:27;100074.00;;;12.70
24639;BMP180;1641;51.306;12.384;2024-02-16T00:52:52;100100.00;;;12.70
24639;BMP180;1641;51.306;12.384;2024-02-16T00:55:17;100096.00;;;12.70
24639;BMP180;1641;51.306;12.384;2024-02-16T00:57:42;100108.00;;;12.70
24639;BMP180;1641;51.306;12.384;2024-02-16T01:00:08;100102.00;;;12.60
24639;BMP180;1641;51.306;12.384;2024-02-16T01:02:34;100108.00;;;12.50
24639;BMP180;1641;51.306;12.384;2024-02-16T01:04:59;100090.00;;;12.50
24639;BMP180;1641;51.306;12.384;2024-02-16T01:07:27;100107.00;;;12.60
24639;BMP180;1641;51.306;12.384;2024-02-16T01:09:52;100105.00;;;12.60
24639;BMP180;1641;51.306;12.384;2024-02-16T01:12:18;100101.00;;;12.40
24639;BMP180;1641;51.306;12.384;2024-02-16T01:14:43;100103.00;;;12.20
24639;BMP180;1641;51.306;12.384;2024-02-16T01:17:08;100104.00;;;12.10
24639;BMP180;1641;51.306;12.384;2024-02-16T01:19:33;100105.00;;;12.30
24639;BMP180;1641;51.306;12.384;2024-02-16T01:21:58;100080.00;;;12.40
24639;BMP180;1641;51.306;12.384;2024-02-16T01:24:25;100105.00;;;12.50
24639;BMP180;1641;51.306;12.384;2024-02-16T01:26:51;100100.00;;;12.50
24639;BMP180;1641;51.306;12.384;2024-02-16T01:29:17;100102.00;;;12.10
24639;BMP180;1641;51.306;12.384;2024-02-16T01:31:42;100110.00;;;12.20
24639;BMP180;1641;51.306;12.384;2024-02-16T01:34:07;100106.00;;;12.20
24639;BMP180;1641;51.306;12.384;2024-02-16T01:36:32;100104.00;;;12.30
24639;BMP180;1641;51.306;12.384;2024-02-16T01:38:58;100103.00;;;12.40
24639;BMP180;1641;51.306;12.384;2024-02-16T01:41:23;100113.00;;;12.50
24639;BMP180;1641;51.306;12.384;2024-02-16T01:43:52;100060.00;;;12.50
24639;BMP180;1641;51.306;12.384;2024-02-16T01:46:21;100098.00;;;12.30
24639;BMP180;1641;51.306;12.384;2024-02-16T01:48:48;100092.00;;;12.20
24639;BMP180;1641;51.306;12.384;2024-02-16T01:51:15;100081.00;;;12.10
24639;BMP180;1641;51.306;12.384;2024-02-16T01:53:44;100079.00;;;12.00
24639;BMP180;1641;51.306;12.384;2024-02-16T01:56:13;100061.00;;;11.70
24639;BMP180;1641;51.306;12.384;2024-02-16T01:58:38;100083.00;;;11.90
24639;BMP180;1641;51.306;12.384;2024-02-16T02:01:03;100087.00;;;11.90
24639;BMP180;1641;51.306;12.384;2024-02-16T02:03:29;100046.00;;;11.60
24639;BMP180;1641;51.306;12.384;2024-02-16T02:05:54;100079.00;;;11.40
24639;BMP180;1641;51.306;12.384;2024-02-16T02:08:21;100077.00;;;11.40
24639;BMP180;1641;51.306;12.384;2024-02-16T02:10:46;100009.00;;;11.40
24639;BMP180;1641;51.306;12.384;2024-02-16T02:13:11;100070.00;;;11.50
24639;BMP180;1641;51.306;12.384;2024-02-16T02:15:37;100065.00;;;11.60
24639;BMP180;1641;51.306;12.384;2024-02-16T02:18:02;100026.00;;;11.50
24639;BMP180;1641;51.306;12.384;2024-02-16T02:20:27;100026.00;;;11.40
24639;BMP180;1641;51.306;12.384;2024-02-16T02:22:52;100052.00;;;11.50
24639;BMP180;1641;51.306;12.384;2024-02-16T02:25:18;100011.00;;;11.50
24639;BMP180;1641;51.306;12.384;2024-02-16T02:27:43;100039.00;;;11.50
24639;BMP180;1641;51.306;12.384;2024-02-16T02:30:08;100027.00;;;11.40
24639;BMP180;1641;51.306;12.384;2024-02-16T02:32:34;100034.00;;;11.70
24639;BMP180;1641;51.306;12.384;2024-02-16T02:34:59;100028.00;;;11.90
24639;BMP180;1641;51.306;12.384;2024-02-16T02:37:24;100036.00;;;12.10
24639;BMP180;1641;51.306;12.384;2024-02-16T02:39:50;100040.00;;;12.40
24639;BMP180;1641;51.306;12.384;2024-02-16T02:42:15;100041.00;;;12.60
24639;BMP180;1641;51.306;12.384;2024-02-16T02:44:40;100028.00;;;12.60
24639;BMP180;1641;51.306;12.384;2024-02-16T02:47:06;100029.00;;;12.40
24639;BMP180;1641;51.306;12.384;2024-02-16T02:49:31;100025.00;;;12.40
24639;BMP180;1641;51.306;12.384;2024-02-16T02:51:58;100018.00;;;12.50
24639;BMP180;1641;51.306;12.384;2024-02-16T02:54:23;100015.00;;;12.70
24639;BMP180;1641;51.306;12.384;2024-02-16T02:56:49;100020.00;;;12.30
24639;BMP180;1641;51.306;12.384;2024-02-16T02:59:14;100027.00;;;12.30
24639;BMP180;1641;51.306;12.384;2024-02-16T03:01:39;100010.00;;;12.40
24639;BMP180;1641;51.306;12.384;2024-02-16T03:04:05;100024.00;;;12.20
24639;BMP180;1641;51.306;12.384;2024-02-16T03:06:30;100006.00;;;12.30
24639;BMP180;1641;51.306;12.384;2024-02-16T03:08:55;99987.00;;;12.40
24639;BMP180;1641;51.306;12.384;2024-02-16T03:11:20;100021.00;;;12.40
24639;BMP180;1641;51.306;12.384;2024-02-16T03:13:45;100012.00;;;12.40
24639;BMP180;1641;51.306;12.384;2024-02-16T03:16:11;100027.00;;;12.50
24639;BMP180;1641;51.306;12.384;2024-02-16T03:18:37;100033.00;;;12.60
24639;BMP180;1641;51.306;12.384;2024-02-16T03:21:02;100031.00;;;12.60
24639;BMP180;1641;51.306;12.384;2024-02-16T03:23:27;100029.00;;;12.50
24639;BMP180;1641;51.306;12.384;2024-02-16T03:25:53;100023.00;;;12.20
24639;BMP180;1641;51.306;12.384;2024-02-16T03:28:18;99980.00;;;11.70
24639;BMP180;1641;51.306;12.384;2024-02-16T03:30:44;100005.00;;;11.70
24639;BMP180;1641;51.306;12.384;2024-02-16T03:33:09;100023.00;;;11.70
24639;BMP180;1641;51.306;12.384;2024-02-16T03:35:35;100027.00;;;12.00
24639;BMP180;1641;51.306;12.384;2024-02-16T03:38:01;100029.00;;;12.20
24639;BMP180;1641;51.306;12.384;2024-02-16T03:40:28;100021.00;;;12.00
24639;BMP180;1641;51.306;12.384;2024-02-16T03:42:53;100027.00;;;12.10
24639;BMP180;1641;51.306;12.384;2024-02-16T03:45:19;100029.00;;;12.20
24639;BMP180;1641;51.306;12.384;2024-02-16T03:47:44;100026.00;;;12.20
24639;BMP180;1641;51.306;12.384;2024-02-16T03:50:10;100019.00;;;12.20
24639;BMP180;1641;51.306;12.384;2024-02-16T03:52:36;100003.00;;;12.20
24639;BMP180;1641;51.306;12.384;2024-02-16T03:55:01;100013.00;;;12.20
24639;BMP180;1641;51.306;12.384;2024-02-16T03:57:26;100011.00;;;12.40
24639;BMP180;1641;51.306;12.384;2024-02-16T03:59:51;100012.00;;;12.20
24639;BMP180;1641;51.306;12.384;2024-02-16T04:02:17;100015.00;;;12.30
24639;BMP180;1641;51.306;12.384;2024-02-16T04:04:42;100013.00;;;12.40
24639;BMP180;1641;51.306;12.384;2024-02-16T04:07:07;100019.00;;;12.40
24639;BMP180;1641;51.306;12.384;2024-02-16T04:09:34;100020.00;;;12.40
24639;BMP180;1641;51.306;12.384;2024-02-16T04:12:00;100017.00;;;12.50
24639;BMP180;1641;51.306;12.384;2024-02-16T04:14:25;100019.00;;;12.50
24639;BMP180;1641;51.306;12.384;2024-02-16T04:16:50;100004.00;;;12.50
24639;BMP180;1641;51.306;12.384;2024-02-16T04:19:15;100020.00;;;12.50
24639;BMP180;1641;51.306;12.384;2024-02-16T04:21:40;100014.00;;;12.60
24639;BMP180;1641;51.306;12.384;2024-02-16T04:24:06;100018.00;;;12.60
24639;BMP180;1641;51.306;12.384;2024-02-16T04:26:31;100023.00;;;12.60
24639;BMP180;1641;51.306;12.384;2024-02-16T04:28:56;100023.00;;;12.50
24639;BMP180;1641;51.306;12.384;2024-02-16T04:31:22;100022.00;;;12.50
24639;BMP180;1641;51.306;12.384;2024-02-16T04:33:47;100009.00;;;12.30
24639;BMP180;1641;51.306;12.384;2024-02-16T04:36:12;99998.00;;;12.30
24639;BMP180;1641;51.306;12.384;2024-02-16T04:38:37;100017.00;;;12.40
24639;BMP180;1641;51.306;12.384;2024-02-16T04:41:05;100008.00;;;12.40
24639;BMP180;1641;51.306;12.384;2024-02-16T04:43:30;100020.00;;;12.40
24639;BMP180;1641;51.306;12.384;2024-02-16T04:45:55;100016.00;;;12.40
24639;BMP180;1641;51.306;12.384;2024-02-16T04:48:21;99993.00;;;12.40
24639;BMP180;1641;51.306;12.384;2024-02-16T04:50:46;100011.00;;;12.10
24639;BMP180;1641;51.306;12.384;2024-02-16T04:53:11;100004.00;;;11.90
24639;BMP180;1641;51.306;12.384;2024-02-16T04:55:36;100006.00;;;12.00
24639;BMP180;1641;51.306;12.384;2024-02-16T04:58:02;99983.00;;;12.00
24639;BMP180;1641;51.306;12.384;2024-02-16T05:00:29;100006.00;;;12.00
24639;BMP180;1641;51.306;12.384;2024-02-16T05:02:55;99986.00;;;12.10
24639;BMP180;1641;51.306;12.384;2024-02-16T05:05:20;100000.00;;;11.90
24639;BMP180;1641;51.306;12.384;2024-02-16T05:07:49;100007.00;;;12.00
24639;BMP180;1641;51.306;12.384;2024-02-16T05:10:15;100000.00;;;11.80
24639;BMP180;1641;51.306;12.384;2024-02-16T05:12:41;99988.00;;;12.00
24639;BMP180;1641;51.306;12.384;2024-02-16T05:15:06;99984.00;;;12.10
24639;BMP180;1641;51.306;12.384;2024-02-16T05:17:32;100000.00;;;12.10
24639;BMP180;1641;51.306;12.384;2024-02-16T05:19:57;99998.00;;;11.90
24639;BMP180;1641;51.306;12.384;2024-02-16T05:22:22;99996.00;;;11.70
24639;BMP180;1641;51.306;12.384;2024-02-16T05:24:47;99998.00;;;11.90
24639;BMP180;1641;51.306;12.384;2024-02-16T05:27:13;99992.00;;;11.90
24639;BMP180;1641;51.306;12.384;2024-02-16T05:29:42;99987.00;;;12.10
24639;BMP180;1641;51.306;12.384;2024-02-16T05:32:07;99991.00;;;12.30
24639;BMP180;1641;51.306;12.384;2024-02-16T05:34:32;100003.00;;;12.20
24639;BMP180;1641;51.306;12.384;2024-02-16T05:37:06;99988.00;;;12.20
24639;BMP180;1641;51.306;12.384;2024-02-16T05:39:43;100003.00;;;12.10
24639;BMP180;1641;51.306;12.384;2024-02-16T05:42:20;99993.00;;;12.10
24639;BMP180;1641;51.306;12.384;2024-02-16T05:44:47;99997.00;;;12.10
24639;BMP180;1641;51.306;12.384;2024-02-16T05:47:15;99989.00;;;12.20
24639;BMP180;1641;51.306;12.384;2024-02-16T05:49:40;99987.00;;;12.30
24639;BMP180;1641;51.306;12.384;2024-02-16T05:52:05;99962.00;;;12.20
24639;BMP180;1641;51.306;12.384;2024-02-16T05:54:44;99984.00;;;12.30
24639;BMP180;1641;51.306;12.384;2024-02-16T05:57:09;99966.00;;;12.20
24639;BMP180;1641;51.306;12.384;2024-02-16T05:59:35;99988.00;;;12.30
24639;BMP180;1641;51.306;12.384;2024-02-16T06:02:00;99983.00;;;12.30
24639;BMP180;1641;51.306;12.384;2024-02-16T06:04:25;99979.00;;;12.40
24639;BMP180;1641;51.306;12.384;2024-02-16T06:06:51;99981.00;;;12.10
24639;BMP180;1641;51.306;12.384;2024-02-16T06:09:18;99970.00;;;12.30
24639;BMP180;1641;51.306;12.384;2024-02-16T06:11:44;99967.00;;;12.30
24639;BMP180;1641;51.306;12.384;2024-02-16T06:14:09;99975.00;;;12.30
24639;BMP180;1641;51.306;12.384;2024-02-16T06:16:34;99988.00;;;12.40
24639;BMP180;1641;51.306;12.384;2024-02-16T06:18:59;99942.00;;;12.40
24639;BMP180;1641;51.306;12.384;2024-02-16T06:21:25;99920.00;;;12.30
24639;BMP180;1641;51.306;12.384;2024-02-16T06:23:50;99953.00;;;12.30
24639;BMP180;1641;51.306;12.384;2024-02-16T06:26:15;99968.00;;;12.30
24639;BMP180;1641;51.306;12.384;2024-02-16T06:28:41;99973.00;;;12.30
24639;BMP180;1641;51.306;12.384;2024-02-16T06:31:06;99976.00;;;12.40
24639;BMP180;1641;51.306;12.384;2024-02-16T06:33:31;99982.00;;;12.30
24639;BMP180;1641;51.306;12.384;2024-02-16T06:35:57;99950.00;;;12.40
24639;BMP180;1641;51.306;12.384;2024-02-16T06:38:22;99986.00;;;12.30
24639;BMP180;1641;51.306;12.384;2024-02-16T06:40:47;99986.00;;;12.50
24639;BMP180;1641;51.306;12.384;2024-02-16T06:43:12;99977.00;;;12.40
24639;BMP180;1641;51.306;12.384;2024-02-16T06:45:37;99981.00;;;12.30
24639;BMP180;1641;51.306;12.384;2024-02-16T06:48:03;99966.00;;;12.40
24639;BMP180;1641;51.306;12.384;2024-02-16T06:50:28;99951.00;;;12.40
24639;BMP180;1641;51.306;12.384;2024-02-16T06:52:53;99986.00;;;12.10
24639;BMP180;1641;51.306;12.384;2024-02-16T06:55:20;99983.00;;;12.30
24639;BMP180;1641;51.306;12.384;2024-02-16T06:57:45;99986.00;;;12.20
24639;BMP180;1641;51.306;12.384;2024-02-16T07:00:11;99951.00;;;12.00
24639;BMP180;1641;51.306;12.384;2024-02-16T07:02:38;99951.00;;;12.10
24639;BMP180;1641;51.306;12.384;2024-02-16T07:05:04;99938.00;;;12.40
24639;BMP180;1641;51.306;12.384;2024-02-16T07:07:29;99973.00;;;12.80
24639;BMP180;1641;51.306;12.384;2024-02-16T07:09:54;99950.00;;;12.70
24639;BMP180;1641;51.306;12.384;2024-02-16T07:12:20;99973.00;;;12.60
24639;BMP180;1641;51.306;12.384;2024-02-16T07:14:46;99970.00;;;12.80
24639;BMP180;1641;51.306;12.384;2024-02-16T07:17:12;99981.00;;;12.90
24639;BMP180;1641;51.306;12.384;2024-02-16T07:19:37;99978.00;;;12.90
24639;BMP180;1641;51.306;12.384;2024-02-16T07:22:02;99976.00;;;12.80
24639;BMP180;1641;51.306;12.384;2024-02-16T07:24:28;99971.00;;;12.80
24639;BMP180;1641;51.306;12.384;2024-02-16T07:26:53;99968.00;;;12.60
24639;BMP180;1641;51.306;12.384;2024-02-16T07:29:19;99978.00;;;12.90
24639;BMP180;1641;51.306;12.384;2024-02-16T07:31:44;99988.00;;;13.30
24639;BMP180;1641;51.306;12.384;2024-02-16T07:34:09;99986.00;;;13.50
24639;BMP180;1641;51.306;12.384;2024-02-16T07:36:36;99988.00;;;13.50
24639;BMP180;1641;51.306;12.384;2024-02-16T07:39:01;99975.00;;;13.40
24639;BMP180;1641;51.306;12.384;2024-02-16T07:41:29;99982.00;;;13.40
24639;BMP180;1641;51.306;12.384;2024-02-16T07:43:55;99959.00;;;13.80
24639;BMP180;1641;51.306;12.384;2024-02-16T07:46:20;99970.00;;;14.00
24639;BMP180;1641;51.306;12.384;2024-02-16T07:48:45;99975.00;;;14.40
24639;BMP180;1641;51.306;12.384;2024-02-16T07:51:10;99973.00;;;14.50
24639;BMP180;1641;51.306;12.384;2024-02-16T07:53:36;99970.00;;;14.10
24639;BMP180;1641;51.306;12.384;2024-02-16T07:56:01;99922.00;;;14.30
24639;BMP180;1641;51.306;12.384;2024-02-16T07:58:26;99977.00;;;14.40
24639;BMP180;1641;51.306;12.384;2024-02-16T08:00:51;99977.00;;;14.20
24639;BMP180;1641;51.306;12.384;2024-02-16T08:03:19;99972.00;;;14.50
24639;BMP180;1641;51.306;12.384;2024-02-16T08:05:44;99974.00;;;14.80
24639;BMP180;1641;51.306;12.384;2024-02-16T08:08:09;99969.00;;;14.90
24639;BMP180;1641;51.306;12.384;2024-02-16T08:10:38;99974.00;;;15.10
24639;BMP180;1641;51.306;12.384;2024-02-16T08:13:03;99973.00;;;16.40
24639;BMP180;1641;51.306;12.384;2024-02-16T08:15:28;99984.00;;;17.80
24639;BMP180;1641;51.306;12.384;2024-02-16T08:17:54;99961.00;;;18.60
24639;BMP180;1641;51.306;12.384;2024-02-16T08:20:19;99964.00;;;18.90
24639;BMP180;1641;51.306;12.384;2024-02-16T08:22:46;99986.00;;;19.80
24639;BMP180;1641;51.306;12.384;2024-02-16T08:25:11;99977.00;;;19.90
24639;BMP180;1641;51.306;12.384;2024-02-16T08:27:36;99971.00;;;18.40
24639;BMP180;1641;51.306;12.384;2024-02-16T08:30:03;99976.00;;;18.20
24639;BMP180;1641;51.306;12.384;2024-02-16T08:32:29;99983.00;;;17.70
24639;BMP180;1641;51.306;12.384;2024-02-16T08:34:54;99946.00;;;18.80
24639;BMP180;1641;51.306;12.384;2024-02-16T08:37:21;99974.00;;;19.40
24639;BMP180;1641;51.306;12.384;2024-02-16T08:39:47;99973.00;;;21.00
24639;BMP180;1641;51.306;12.384;2024-02-16T08:42:12;99967.00;;;21.70
24639;BMP180;1641;51.306;12.384;2024-02-16T08:44:37;99981.00;;;22.00
24639;BMP180;1641;51.306;12.384;2024-02-16T08:47:05;99977.00;;;21.90
24639;BMP180;1641;51.306;12.384;2024-02-16T08:49:31;99984.00;;;21.90
24639;BMP180;1641;51.306;12.384;2024-02-16T08:51:56;99979.00;;;21.80
24639;BMP180;1641;51.306;12.384;2024-02-16T08:54:22;99968.00;;;21.70
24639;BMP180;1641;51.306;12.384;2024-02-16T08:56:47;99978.00;;;20.00
24639;BMP180;1641;51.306;12.384;2024-02-16T08:59:16;99955.00;;;18.40
24639;BMP180;1641;51.306;12.384;2024-02-16T09:01:42;99975.00;;;17.40
24639;BMP180;1641;51.306;12.384;2024-02-16T09:04:08;99972.00;;;16.90
24639;BMP180;1641;51.306;12.384;2024-02-16T09:06:33;99985.00;;;16.70
24639;BMP180;1641;51.306;12.384;2024-02-16T09:09:03;99978.00;;;16.70
24639;BMP180;1641;51.306;12.384;2024-02-16T09:11:31;99989.00;;;16.70
24639;BMP180;1641;51.306;12.384;2024-02-16T09:13:56;99991.00;;;16.50
24639;BMP180;1641;51.306;12.384;2024-02-16T09:16:22;99982.00;;;16.90
24639;BMP180;1641;51.306;12.384;2024-02-16T09:18:47;99965.00;;;17.30
24639;BMP180;1641;51.306;12.384;2024-02-16T09:21:15;99978.00;;;17.00
24639;BMP180;1641;51.306;12.384;2024-02-16T09:23:42;99978.00;;;16.60
24639;BMP180;1641;51.306;12.384;2024-02-16T09:26:07;99963.00;;;16.80
24639;BMP180;1641;51.306;12.384;2024-02-16T09:28:39;99981.00;;;16.70
24639;BMP180;1641;51.306;12.384;2024-02-16T09:31:08;99980.00;;;16.30
24639;BMP180;1641;51.306;12.384;2024-02-16T09:33:33;99975.00;;;16.70
24639;BMP180;1641;51.306;12.384;2024-02-16T09:35:59;99940.00;;;16.90
24639;BMP180;1641;51.306;12.384;2024-02-16T09:38:27;99962.00;;;16.70
24639;BMP180;1641;51.306;12.384;2024-02-16T09:40:52;99963.00;;;16.20
24639;BMP180;1641;51.306;12.384;2024-02-16T09:43:28;99969.00;;;16.10
24639;BMP180;1641;51.306;12.384;2024-02-16T09:45:58;99972.00;;;16.20
24639;BMP180;1641;51.306;12.384;2024-02-16T09:48:26;99965.00;;;16.20
24639;BMP180;1641;51.306;12.384;2024-02-16T09:50:56;99946.00;;;16.40
24639;BMP180;1641;51.306;12.384;2024-02-16T09:53:24;99968.00;;;16.50
24639;BMP180;1641;51.306;12.384;2024-02-16T09:55:49;99938.00;;;16.80
24639;BMP180;1641;51.306;12.384;2024-02-16T09:58:16;99968.00;;;17.00
24639;BMP180;1641;51.306;12.384;2024-02-16T10:00:55;99968.00;;;17.30
24639;BMP180;1641;51.306;12.384;2024-02-16T10:03:23;99960.00;;;17.20
24639;BMP180;1641;51.306;12.384;2024-02-16T10:05:50;99976.00;;;17.00
24639;BMP180;1641;51.306;12.384;2024-02-16T10:08:16;99972.00;;;16.90
24639;BMP180;1641;51.306;12.384;2024-02-16T10:10:41;99972.00;;;17.30
24639;BMP180;1641;51.306;12.384;2024-02-16T10:13:07;99972.00;;;17.50
24639;BMP180;1641;51.306;12.384;2024-02-16T10:15:33;99967.00;;;17.70
24639;BMP180;1641;51.306;12.384;2024-02-16T10:18:04;99977.00;;;17.60
24639;BMP180;1641;51.306;12.384;2024-02-16T10:20:31;99975.00;;;17.30
24639;BMP180;1641;51.306;12.384;2024-02-16T10:23:09;99981.00;;;17.60
24639;BMP180;1641;51.306;12.384;2024-02-16T10:25:35;99982.00;;;17.40
24639;BMP180;1641;51.306;12.384;2024-02-16T10:28:06;99998.00;;;17.40
24639;BMP180;1641;51.306;12.384;2024-02-16T10:30:40;100005.00;;;17.50
24639;BMP180;1641;51.306;12.384;2024-02-16T10:33:06;99999.00;;;17.40
24639;BMP180;1641;51.306;12.384;2024-02-16T10:35:36;100009.00;;;17.20
24639;BMP180;1641;51.306;12.384;2024-02-16T10:38:03;100004.00;;;17.70
24639;BMP180;1641;51.306;12.384;2024-02-16T10:40:37;100016.00;;;17.80
24639;BMP180;1641;51.306;12.384;2024-02-16T10:43:05;100006.00;;;18.20
24639;BMP180;1641;51.306;12.384;2024-02-16T10:45:34;100015.00;;;18.30
24639;BMP180;1641;51.306;12.384;2024-02-16T10:48:03;100018.00;;;18.40
24639;BMP180;1641;51.306;12.384;2024-02-16T10:50:31;100020.00;;;18.10
24639;BMP180;1641;51.306;12.384;2024-02-16T10:52:58;99989.00;;;18.50
24639;BMP180;1641;51.306;12.384;2024-02-16T10:55:28;100032.00;;;18.40
24639;BMP180;1641;51.306;12.384;2024-02-16T10:57:56;100022.00;;;18.60
24639;BMP180;1641;51.306;12.384;2024-02-16T11:00:22;100003.00;;;18.40
24639;BMP180;1641;51.306;12.384;2024-02-16T11:05:34;100032.00;;;18.10
24639;BMP180;1641;51.306;12.384;2024-02-16T11:08:04;100023.00;;;17.90
24639;BMP180;1641;51.306;12.384;2024-02-16T11:10:29;100016.00;;;17.50
24639;BMP180;1641;51.306;12.384;2024-02-16T11:13:01;100025.00;;;17.40
24639;BMP180;1641;51.306;12.384;2024-02-16T11:15:31;100023.00;;;17.70
24639;BMP180;1641;51.306;12.384;2024-02-16T11:17:57;100025.00;;;17.80
24639;BMP180;1641;51.306;12.384;2024-02-16T11:20:25;100022.00;;;17.50
24639;BMP180;1641;51.306;12.384;2024-02-16T11:22:52;100004.00;;;17.70
24639;BMP180;1641;51.306;12.384;2024-02-16T11:25:18;100016.00;;;17.50
24639;BMP180;1641;51.306;12.384;2024-02-16T11:27:44;100003.00;;;17.60
24639;BMP180;1641;51.306;12.384;2024-02-16T11:30:10;100016.00;;;18.00
24639;BMP180;1641;51.306;12.384;2024-02-16T11:32:36;100012.00;;;18.10
24639;BMP180;1641;51.306;12.384;2024-02-16T11:35:07;100007.00;;;17.70
24639;BMP180;1641;51.306;12.384;2024-02-16T11:37:33;100002.00;;;17.80
24639;BMP180;1641;51.306;12.384;2024-02-16T11:39:58;100002.00;;;17.60
24639;BMP180;1641;51.306;12.384;2024-02-16T11:42:24;99996.00;;;17.50
24639;BMP180;1641;51.306;12.384;2024-02-16T11:44:55;99991.00;;;17.60
24639;BMP180;1641;51.306;12.384;2024-02-16T11:47:21;99995.00;;;17.70
24639;BMP180;1641;51.306;12.384;2024-02-16T11:52:40;99980.00;;;17.30
24639;BMP180;1641;51.306;12.384;2024-02-16T11:55:09;99980.00;;;17.30
24639;BMP180;1641;51.306;12.384;2024-02-16T11:57:38;99991.00;;;17.50
24639;BMP180;1641;51.306;12.384;2024-02-16T12:00:04;99982.00;;;17.60
24639;BMP180;1641;51.306;12.384;2024-02-16T12:02:36;99985.00;;;17.60
24639;BMP180;1641;51.306;12.384;2024-02-16T12:05:02;99977.00;;;17.70
24639;BMP180;1641;51.306;12.384;2024-02-16T12:07:27;99991.00;;;17.70
24639;BMP180;1641;51.306;12.384;2024-02-16T12:10:00;99982.00;;;17.90
24639;BMP180;1641;51.306;12.384;2024-02-16T12:12:33;99955.00;;;18.10
24639;BMP180;1641;51.306;12.384;2024-02-16T12:14:58;99989.00;;;18.50
24639;BMP180;1641;51.306;12.384;2024-02-16T12:17:26;99982.00;;;18.60
24639;BMP180;1641;51.306;12.384;2024-02-16T12:20:00;99988.00;;;18.60
24639;BMP180;1641;51.306;12.384;2024-02-16T12:22:26;99990.00;;;18.90
24639;BMP180;1641;51.306;12.384;2024-02-16T12:25:00;99951.00;;;18.90
24639;BMP180;1641;51.306;12.384;2024-02-16T12:27:32;99983.00;;;18.90
24639;BMP180;1641;51.306;12.384;2024-02-16T12:29:58;99981.00;;;18.80
24639;BMP180;1641;51.306;12.384;2024-02-16T12:32:27;99944.00;;;18.90
24639;BMP180;1641;51.306;12.384;2024-02-16T12:34:53;99978.00;;;18.70
24639;BMP180;1641;51.306;12.384;2024-02-16T12:37:27;99978.00;;;18.70
24639;BMP180;1641;51.306;12.384;2024-02-16T12:39:58;99982.00;;;18.60
24639;BMP180;1641;51.306;12.384;2024-02-16T12:42:27;99945.00;;;18.70
24639;BMP180;1641;51.306;12.384;2024-02-16T12:44:52;99956.00;;;18.90
24639;BMP180;1641;51.306;12.384;2024-02-16T12:47:20;99976.00;;;18.80
24639;BMP180;1641;51.306;12.384;2024-02-16T12:49:55;99971.00;;;18.70
24639;BMP180;1641;51.306;12.384;2024-02-16T12:52:21;99935.00;;;19.20
24639;BMP180;1641;51.306;12.384;2024-02-16T12:54:49;99975.00;;;19.20
24639;BMP180;1641;51.306;12.384;2024-02-16T12:57:17;99932.00;;;19.10
24639;BMP180;1641;51.306;12.384;2024-02-16T12:59:45;99966.00;;;19.30
24639;BMP180;1641;51.306;12.384;2024-02-16T13:02:11;99973.00;;;19.40
24639;BMP180;1641;51.306;12.384;2024-02-16T13:04:36;99975.00;;;19.20
24639;BMP180;1641;51.306;12.384;2024-02-16T13:07:05;99971.00;;;19.50
24639;BMP180;1641;51.306;12.384;2024-02-16T13:09:33;99975.00;;;19.10
24639;BMP180;1641;51.306;12.384;2024-02-16T13:12:01;99959.00;;;19.30
24639;BMP180;1641;51.306;12.384;2024-02-16T13:14:36;99964.00;;;19.30
24639;BMP180;1641;51.306;12.384;2024-02-16T13:17:05;99971.00;;;19.20
24639;BMP180;1641;51.306;12.384;2024-02-16T13:19:30;99974.00;;;19.40
24639;BMP180;1641;51.306;12.384;2024-02-16T13:22:04;99949.00;;;19.40
24639;BMP180;1641;51.306;12.384;2024-02-16T13:24:45;99979.00;;;19.50
24639;BMP180;1641;51.306;12.384;2024-02-16T13:27:13;99976.00;;;19.30
24639;BMP180;1641;51.306;12.384;2024-02-16T13:29:48;99976.00;;;19.10
24639;BMP180;1641;51.306;12.384;2024-02-16T13:32:13;99957.00;;;19.20
24639;BMP180;1641;51.306;12.384;2024-02-16T13:34:38;99947.00;;;19.20
24639;BMP180;1641;51.306;12.384;2024-02-16T13:37:05;99973.00;;;19.30
24639;BMP180;1641;51.306;12.384;2024-02-16T13:39:30;99975.00;;;19.20
24639;BMP180;1641;51.306;12.384;2024-02-16T13:41:55;99952.00;;;18.80
24639;BMP180;1641;51.306;12.384;2024-02-16T13:44:25;99939.00;;;18.50
24639;BMP180;1641;51.306;12.384;2024-02-16T13:46:50;99968.00;;;18.40
24639;BMP180;1641;51.306;12.384;2024-02-16T13:49:15;99935.00;;;18.60
24639;BMP180;1641;51.306;12.384;2024-02-16T13:51:47;99962.00;;;18.70
24639;BMP180;1641;51.306;12.384;2024-02-16T13:54:12;99964.00;;;18.70
24639;BMP180;1641;51.306;12.384;2024-02-16T13:56:37;99967.00;;;18.70
24639;BMP180;1641;51.306;12.384;2024-02-16T13:59:04;99966.00;;;18.80
24639;BMP180;1641;51.306;12.384;2024-02-16T14:01:30;99966.00;;;18.60
24639;BMP180;1641;51.306;12.384;2024-02-16T14:03:58;99935.00;;;18.90
24639;BMP180;1641;51.306;12.384;2024-02-16T14:06:24;99926.00;;;18.40